Time;durP1;ratioP1;P1;durP2;ratioP2;P2;SDS_P1;SDS_P2;PMS_P1;PMS_P2;Temp;Humidity;BMP_temperature;BMP_pressure;BME280_temperature;BME280_humidity;BME280_pressure;Samples;Min_cycle;Max_cycle;Signal;HPM_P1;HPM_P2
2024/04/04 00:00:56;;;;;;;3.22;1.60;;;;;;;9.71;100.00;100223.47;8376930;28;20045;-86
2024/04/04 00:05:01;;;;;;;2.00;1.50;;;;;;;9.60;100.00;100216.72;8360358;28;20130;-85
2024/04/04 00:09:01;;;;;;;3.95;1.58;;;;;;;9.68;100.00;100213.97;8356057;28;20077;-86
2024/04/04 00:13:02;;;;;;;2.10;1.23;;;;;;;9.69;100.00;100210.28;8334609;28;20061;-85
2024/04/04 00:17:03;;;;;;;2.92;1.65;;;;;;;9.58;100.00;100216.91;8345398;28;20104;-86
2024/04/04 00:21:03;;;;;;;2.70;1.50;;;;;;;9.70;100.00;100216.44;8360614;28;20048;-85
2024/04/04 00:25:04;;;;;;;3.10;1.42;;;;;;;9.60;100.00;100217.56;8372174;28;20136;-84
2024/04/04 00:29:04;;;;;;;2.63;1.50;;;;;;;9.62;100.00;100228.91;8377580;28;20064;-85
2024/04/04 00:33:05;;;;;;;3.80;1.50;;;;;;;9.64;100.00;100216.19;8339756;28;20506;-84
2024/04/04 00:37:07;;;;;;;4.15;1.27;;;;;;;9.67;100.00;100221.16;8339601;28;20460;-84
2024/04/04 00:41:08;;;;;;;3.20;1.35;;;;;;;9.59;100.00;100217.75;8344741;28;20132;-84
2024/04/04 00:45:08;;;;;;;1.35;0.90;;;;;;;9.60;100.00;100227.44;8367698;28;20052;-84
2024/04/04 00:49:09;;;;;;;2.83;1.40;;;;;;;9.76;100.00;100229.94;8338410;28;20417;-84
2024/04/04 00:53:10;;;;;;;2.78;1.40;;;;;;;9.67;100.00;100223.84;8342349;28;20115;-84
2024/04/04 00:57:11;;;;;;;3.55;1.33;;;;;;;9.63;100.00;100219.88;8326429;28;20111;-85
2024/04/04 01:01:15;;;;;;;1.70;1.40;;;;;;;9.67;100.00;100221.16;8331306;28;20155;-85
2024/04/04 01:05:16;;;;;;;1.98;1.30;;;;;;;9.67;100.00;100218.47;8326925;28;20140;-86
2024/04/04 01:09:16;;;;;;;2.30;1.52;;;;;;;9.69;100.00;100223.66;8339314;28;20053;-86
2024/04/04 01:13:17;;;;;;;1.85;1.20;;;;;;;9.59;100.00;100225.78;8321211;28;20057;-87
2024/04/04 01:17:17;;;;;;;3.15;1.50;;;;;;;9.57;100.00;100228.63;8361359;28;20056;-87
2024/04/04 01:21:18;;;;;;;1.67;1.27;;;;;;;9.65;100.00;100228.53;8369950;28;20459;-86
2024/04/04 01:25:19;;;;;;;4.25;1.60;;;;;;;9.70;100.00;100229.81;8323761;28;20064;-86
2024/04/04 01:29:19;;;;;;;3.42;1.50;;;;;;;9.58;100.00;100214.25;8324565;28;20053;-85
2024/04/04 01:33:20;;;;;;;2.38;1.25;;;;;;;9.49;100.00;100226.03;8351750;28;20079;-85
2024/04/04 01:37:21;;;;;;;4.40;1.80;;;;;;;9.45;100.00;100218.56;8364346;28;20049;-87
2024/04/04 01:41:21;;;;;;;4.07;1.55;;;;;;;9.44;100.00;100214.22;8350715;28;20456;-85
2024/04/04 01:45:22;;;;;;;3.78;1.80;;;;;;;9.57;100.00;100207.25;8362750;28;20053;-85
2024/04/04 01:49:22;;;;;;;1.88;1.45;;;;;;;9.56;100.00;100215.44;8372431;28;20398;-86
2024/04/04 01:53:23;;;;;;;2.70;1.80;;;;;;;9.68;100.00;100220.13;8357406;28;20060;-88
2024/04/04 01:57:24;;;;;;;3.13;1.73;;;;;;;9.51;100.00;100213.31;8321775;28;20060;-85
2024/04/04 02:01:25;;;;;;;3.40;1.60;;;;;;;9.47;100.00;100204.00;8362337;28;20533;-86
2024/04/04 02:05:26;;;;;;;2.75;1.73;;;;;;;9.37;100.00;100216.78;8377439;28;20057;-86
2024/04/04 02:09:27;;;;;;;2.70;1.98;;;;;;;9.44;100.00;100216.91;8377316;28;20088;-85
2024/04/04 02:13:28;;;;;;;2.50;2.20;;;;;;;9.42;100.00;100208.22;8361751;28;20493;-86
2024/04/04 02:17:29;;;;;;;3.25;2.40;;;;;;;9.61;100.00;100213.03;8353716;28;20064;-86
2024/04/04 02:21:31;;;;;;;3.28;2.15;;;;;;;9.57;100.00;100220.63;8345288;28;20092;-86
2024/04/04 02:25:32;;;;;;;3.58;2.33;;;;;;;9.37;100.00;100211.44;8372138;28;20049;-84
2024/04/04 02:29:32;;;;;;;4.10;2.63;;;;;;;9.47;100.00;100208.50;8377695;28;20048;-86
2024/04/04 02:33:33;;;;;;;2.55;2.20;;;;;;;9.40;100.00;100205.75;8391284;28;20571;-86
2024/04/04 02:37:34;;;;;;;3.88;2.67;;;;;;;9.35;100.00;100210.78;8379875;28;20057;-85
2024/04/04 02:41:35;;;;;;;3.90;2.90;;;;;;;9.53;100.00;100208.59;8364098;28;20095;-84
2024/04/04 02:45:36;;;;;;;5.13;3.10;;;;;;;9.30;100.00;100207.84;8340466;28;20132;-83
2024/04/04 02:49:37;;;;;;;4.65;3.35;;;;;;;9.28;100.00;100205.34;8338799;28;20060;-83
2024/04/04 02:53:40;;;;;;;3.88;3.13;;;;;;;9.33;100.00;100202.94;8371271;28;20452;-83
2024/04/04 02:57:40;;;;;;;1.88;1.42;;;;;;;9.27;100.00;100201.00;8352961;28;20068;-85
2024/04/04 03:01:41;;;;;;;5.97;3.78;;;;;;;9.50;100.00;100202.78;8333693;28;20080;-85
2024/04/04 03:05:42;;;;;;;5.80;3.20;;;;;;;9.44;100.00;100199.00;8374958;28;20053;-84
2024/04/04 03:09:43;;;;;;;5.78;3.42;;;;;;;9.52;100.00;100208.78;8362965;28;20067;-85
2024/04/04 03:13:43;;;;;;;4.93;3.38;;;;;;;9.33;100.00;100204.78;8379086;28;20091;-84
2024/04/04 03:17:44;;;;;;;3.50;3.05;;;;;;;9.52;100.00;100208.78;8342529;28;20065;-84
2024/04/04 03:21:44;;;;;;;4.53;3.65;;;;;;;9.34;100.00;100207.28;8327286;28;20497;-83
2024/04/04 03:25:45;;;;;;;5.93;3.47;;;;;;;9.30;100.00;100203.31;8353726;28;20057;-84
2024/04/04 03:29:46;;;;;;;6.03;3.55;;;;;;;9.27;100.00;100205.53;8377529;28;20052;-84
2024/04/04 03:33:47;;;;;;;5.47;3.80;;;;;;;9.33;100.00;100210.13;8367267;28;20099;-85
2024/04/04 03:37:48;;;;;;;5.68;3.85;;;;;;;9.32;100.00;100214.66;8372395;28;20130;-85
2024/04/04 03:41:48;;;;;;;6.35;3.90;;;;;;;9.17;100.00;100220.97;8346087;28;20105;-86
2024/04/04 03:45:49;;;;;;;5.38;3.60;;;;;;;9.18;100.00;100206.59;8328014;28;20057;-85
2024/04/04 03:49:50;;;;;;;4.78;4.28;;;;;;;9.13;100.00;100214.34;8362136;28;20060;-85
2024/04/04 03:53:50;;;;;;;5.55;4.03;;;;;;;9.26;100.00;100223.41;8351359;28;20069;-86
2024/04/04 03:57:51;;;;;;;4.53;3.08;;;;;;;9.14;100.00;100230.19;8332715;28;20464;-86
2024/04/04 04:01:52;;;;;;;4.55;3.28;;;;;;;9.14;100.00;100224.00;8362046;28;20049;-86
2024/04/04 04:05:53;;;;;;;4.15;3.22;;;;;;;9.07;100.00;100240.78;8355006;28;20080;-85
2024/04/04 04:09:53;;;;;;;4.88;3.58;;;;;;;9.16;100.00;100238.84;8387557;28;20079;-86
2024/04/04 04:13:54;;;;;;;3.85;3.33;;;;;;;9.16;100.00;100246.88;8364083;28;20049;-85
2024/04/04 04:17:54;;;;;;;6.20;3.63;;;;;;;9.18;100.00;100257.38;8373720;28;20048;-84
2024/04/04 04:21:55;;;;;;;5.43;3.80;;;;;;;9.25;100.00;100253.00;8393444;28;20053;-85
2024/04/04 04:25:56;;;;;;;5.70;3.60;;;;;;;9.33;100.00;100258.25;8375571;28;20121;-85
2024/04/04 04:29:57;;;;;;;4.95;3.22;;;;;;;9.22;100.00;100254.19;8382937;28;20494;-84
2024/04/04 04:34:05;;;;;;;4.95;3.58;;;;;;;9.30;100.00;100262.13;8359491;28;20057;-84
2024/04/04 04:38:06;;;;;;;4.03;3.35;;;;;;;9.16;100.00;100252.22;8364066;28;20049;-86
2024/04/04 04:42:06;;;;;;;4.72;3.85;;;;;;;9.17;100.00;100255.72;8392930;28;20045;-85
2024/04/04 04:46:07;;;;;;;4.38;3.67;;;;;;;9.38;100.00;100265.75;8394383;28;20048;-84
2024/04/04 04:50:09;;;;;;;7.53;4.93;;;;;;;9.30;100.00;100269.31;8371544;28;20060;-86
2024/04/04 04:54:10;;;;;;;6.05;4.70;;;;;;;9.31;100.00;100270.97;8394282;28;20063;-83
2024/04/04 04:58:11;;;;;;;5.00;4.13;;;;;;;9.19;100.00;100275.91;8401039;28;20052;-81
2024/04/04 05:02:13;;;;;;;8.25;4.50;;;;;;;9.25;100.00;100277.06;8373409;28;20048;-85
2024/04/04 05:06:15;;;;;;;6.93;4.55;;;;;;;9.21;100.00;100267.75;8368347;28;20061;-85
2024/04/04 05:10:15;;;;;;;6.53;4.03;;;;;;;9.20;100.00;100274.06;8371604;28;20057;-85
2024/04/04 05:14:16;;;;;;;6.40;4.50;;;;;;;9.23;100.00;100284.44;8371391;28;20133;-85
2024/04/04 05:18:17;;;;;;;5.47;3.92;;;;;;;9.20;100.00;100284.75;8370942;28;20053;-85
2024/04/04 05:22:17;;;;;;;6.38;3.88;;;;;;;9.31;100.00;100279.84;8382460;28;20056;-85
2024/04/04 05:26:18;;;;;;;4.45;3.90;;;;;;;9.29;100.00;100287.22;8387329;28;20057;-85
2024/04/04 05:30:19;;;;;;;5.43;4.07;;;;;;;9.31;100.00;100276.31;8391823;28;20044;-84
2024/04/04 05:34:21;;;;;;;5.15;4.35;;;;;;;9.42;100.00;100296.47;8383203;28;20127;-84
2024/04/04 05:38:22;;;;;;;5.57;3.20;;;;;;;9.44;100.00;100302.47;8358074;28;20065;-84
2024/04/04 05:42:24;;;;;;;6.20;3.10;;;;;;;9.63;100.00;100304.63;8331196;28;20045;-84
2024/04/04 05:46:24;;;;;;;6.95;3.03;;;;;;;9.79;100.00;100307.16;8377688;28;20056;-84
2024/04/04 05:50:26;;;;;;;4.05;2.50;;;;;;;9.74;100.00;100316.75;8357340;28;20142;-84
2024/04/04 05:54:27;;;;;;;4.18;2.38;;;;;;;10.02;100.00;100315.09;8357166;28;20095;-84
2024/04/04 05:58:27;;;;;;;3.35;2.05;;;;;;;9.82;100.00;100304.09;8357187;28;20056;-84
2024/04/04 06:02:28;;;;;;;2.50;1.98;;;;;;;9.94;100.00;100313.38;8355668;28;20052;-84
2024/04/04 06:06:29;;;;;;;3.20;2.47;;;;;;;9.81;100.00;100309.66;8371393;28;20064;-84
2024/04/04 06:10:29;;;;;;;4.95;2.55;;;;;;;9.91;100.00;100310.22;8370504;28;20053;-84
2024/04/04 06:14:30;;;;;;;3.55;2.60;;;;;;;10.03;100.00;100307.91;8377214;28;20085;-84
2024/04/04 06:18:30;;;;;;;6.43;3.03;;;;;;;9.97;100.00;100298.78;8365064;28;20060;-83
2024/04/04 06:22:31;;;;;;;3.20;2.70;;;;;;;10.09;100.00;100301.84;8381185;28;20048;-85
2024/04/04 06:26:32;;;;;;;2.78;2.45;;;;;;;10.08;100.00;100292.97;8361084;28;20060;-84
2024/04/04 06:30:33;;;;;;;5.32;3.67;;;;;;;10.12;100.00;100296.94;8390864;28;20067;-85
2024/04/04 06:34:36;;;;;;;4.13;3.53;;;;;;;10.23;100.00;100293.81;8362151;28;20487;-85
2024/04/04 06:38:37;;;;;;;4.72;3.63;;;;;;;10.42;100.00;100291.59;8378229;28;20107;-85
2024/04/04 06:42:37;;;;;;;4.82;2.25;;;;;;;10.48;100.00;100296.22;8361459;28;20138;-85
2024/04/04 06:46:38;;;;;;;13.80;4.38;;;;;;;10.62;100.00;100308.75;8350778;28;20053;-85
2024/04/04 06:50:39;;;;;;;3.35;2.92;;;;;;;10.68;100.00;100301.81;8373545;28;20052;-85
2024/04/04 06:54:39;;;;;;;3.67;2.63;;;;;;;10.93;100.00;100310.31;8377683;28;20056;-83
2024/04/04 06:58:40;;;;;;;2.08;1.45;;;;;;;10.79;100.00;100314.72;8361602;28;20085;-84
2024/04/04 07:02:41;;;;;;;5.07;3.10;;;;;;;10.93;100.00;100313.81;8364362;28;20514;-83
2024/04/04 07:06:42;;;;;;;4.43;2.70;;;;;;;11.08;100.00;100300.38;8381664;28;20095;-83
2024/04/04 07:10:42;;;;;;;4.63;1.88;;;;;;;11.02;100.00;100306.50;8372856;28;20049;-79
2024/04/04 07:14:43;;;;;;;2.60;1.77;;;;;;;11.03;100.00;100300.13;8388040;28;20068;-81
2024/04/04 07:18:44;;;;;;;6.68;2.38;;;;;;;11.20;100.00;100293.50;8371136;28;20052;-80
2024/04/04 07:22:45;;;;;;;9.70;2.05;;;;;;;11.12;100.00;100302.50;8388217;28;20041;-79
2024/04/04 07:26:48;;;;;;;2.85;2.20;;;;;;;11.41;100.00;100308.75;8390280;28;20072;-79
2024/04/04 07:30:49;;;;;;;13.18;2.78;;;;;;;11.41;100.00;100308.75;8388290;28;20500;-80
2024/04/04 07:34:49;;;;;;;5.78;2.65;;;;;;;11.49;100.00;100308.63;8387888;28;20053;-80
2024/04/04 07:38:50;;;;;;;4.60;2.40;;;;;;;11.67;100.00;100300.09;8381191;28;20056;-79
2024/04/04 07:42:53;;;;;;;3.75;2.20;;;;;;;11.88;100.00;100301.94;8349096;28;20046;-79
2024/04/04 07:46:54;;;;;;;3.08;2.20;;;;;;;11.80;96.32;100299.38;8380586;28;20080;-80
2024/04/04 07:50:54;;;;;;;4.50;1.98;;;;;;;11.75;96.13;100305.31;8379482;28;20516;-80
2024/04/04 07:54:55;;;;;;;2.63;1.25;;;;;;;11.75;94.43;100324.09;8383593;28;20127;-79
2024/04/04 07:58:56;;;;;;;3.70;1.70;;;;;;;12.32;89.20;100309.63;8366750;28;20505;-79
2024/04/04 08:02:59;;;;;;;4.10;1.80;;;;;;;12.35;90.51;100310.06;8382630;28;20075;-82
2024/04/04 08:07:00;;;;;;;3.25;1.60;;;;;;;12.55;88.29;100303.97;8380178;28;20520;-80
2024/04/04 08:11:00;;;;;;;2.85;1.20;;;;;;;12.48;81.00;100327.28;8379518;28;20076;-79
2024/04/04 08:15:09;;;;;;;4.90;1.30;;;;;;;12.51;81.54;100321.53;8381727;28;20056;-78
2024/04/04 08:19:11;;;;;;;1.15;0.90;;;;;;;12.64;81.60;100316.19;8374267;28;20032;-79
2024/04/04 08:23:11;;;;;;;3.80;1.83;;;;;;;12.77;79.17;100316.25;8386113;28;20051;-79
2024/04/04 08:27:13;;;;;;;4.55;1.40;;;;;;;13.15;78.98;100300.41;8381697;28;20053;-78
2024/04/04 08:31:13;;;;;;;3.90;1.45;;;;;;;13.38;73.68;100300.06;8385492;28;20049;-78
2024/04/04 08:35:14;;;;;;;3.20;1.05;;;;;;;13.18;73.56;100286.56;8378720;28;20059;-79
2024/04/04 08:39:14;;;;;;;4.75;1.20;;;;;;;14.10;72.21;100292.97;8376385;28;20128;-80
2024/04/04 08:43:18;;;;;;;2.22;1.25;;;;;;;13.49;71.43;100294.06;8374910;28;20291;-80
2024/04/04 08:47:20;;;;;;;2.35;1.15;;;;;;;13.69;71.69;100296.75;8357881;28;20087;-79
2024/04/04 08:51:21;;;;;;;1.52;1.15;;;;;;;13.29;74.53;100295.91;8354570;28;20138;-78
2024/04/04 08:55:22;;;;;;;3.38;1.25;;;;;;;13.31;75.10;100301.09;8371646;28;20142;-78
2024/04/04 08:59:22;;;;;;;3.25;1.25;;;;;;;13.40;76.12;100313.31;8371166;28;20053;-80
2024/04/04 09:03:23;;;;;;;2.05;1.30;;;;;;;13.49;72.31;100294.06;8371632;28;20057;-79
2024/04/04 09:07:24;;;;;;;2.17;1.13;;;;;;;14.00;72.62;100293.41;8373632;28;20056;-79
2024/04/04 09:11:25;;;;;;;2.50;0.90;;;;;;;14.31;67.21;100278.41;8374030;28;20064;-80
2024/04/04 09:15:27;;;;;;;2.15;1.20;;;;;;;14.27;63.61;100287.97;8356671;28;20104;-80
2024/04/04 09:19:28;;;;;;;2.10;0.80;;;;;;;13.21;64.64;100290.75;8374099;28;20091;-79
2024/04/04 09:23:32;;;;;;;3.72;0.80;;;;;;;13.91;62.93;100286.59;8373649;28;20041;-80
2024/04/04 09:27:33;;;;;;;1.08;0.55;;;;;;;14.30;62.74;100284.84;8356625;28;20084;-80
2024/04/04 09:31:38;;;;;;;2.72;0.95;;;;;;;14.69;59.89;100273.09;8356231;28;20045;-80
2024/04/04 09:35:40;;;;;;;1.10;0.60;;;;;;;14.09;61.07;100280.56;8373664;28;20575;-80
2024/04/04 09:39:41;;;;;;;3.20;0.85;;;;;;;13.68;63.36;100270.88;8341081;28;20085;-80
2024/04/04 09:43:42;;;;;;;2.60;1.05;;;;;;;13.79;63.82;100269.41;8372563;28;20091;-79
2024/04/04 09:47:42;;;;;;;4.25;0.90;;;;;;;13.38;65.05;100275.03;8372528;28;20056;-79
2024/04/04 09:51:45;;;;;;;2.53;0.98;;;;;;;13.34;62.41;100276.47;8356986;28;20057;-80
2024/04/04 09:55:46;;;;;;;1.98;0.85;;;;;;;13.42;62.21;100277.09;8373283;28;20088;-81
2024/04/04 10:00:01;;;;;;;2.60;0.73;;;;;;;13.09;62.52;100277.03;8363864;28;20108;-79
2024/04/04 10:04:02;;;;;;;4.07;1.10;;;;;;;13.21;63.50;100272.75;8385080;28;20049;-79
2024/04/04 10:08:11;;;;;;;1.70;1.02;;;;;;;13.21;64.36;100266.53;8382378;28;20497;-79
2024/04/04 10:12:15;;;;;;;3.03;0.73;;;;;;;13.07;64.06;100267.50;8339248;28;20054;-80
2024/04/04 10:16:26;;;;;;;3.55;0.80;;;;;;;13.16;66.58;100261.72;8377240;28;20091;-81
2024/04/04 10:20:29;;;;;;;4.53;1.35;;;;;;;13.46;65.82;100245.22;8386928;28;20087;-80
2024/04/04 10:24:32;;;;;;;2.05;0.80;;;;;;;13.76;64.71;100259.91;8390799;28;20417;-79
2024/04/04 10:28:33;;;;;;;2.30;0.70;;;;;;;13.50;67.02;100244.59;8368813;28;20092;-81
2024/04/04 10:32:33;;;;;;;5.10;0.98;;;;;;;13.41;69.34;100240.47;8383317;28;20084;-82
2024/04/04 10:36:43;;;;;;;5.65;1.20;;;;;;;13.41;71.67;100245.84;8380662;28;20524;-79
2024/04/04 10:40:43;;;;;;;1.33;0.90;;;;;;;13.09;73.18;100234.00;8358708;28;20084;-79
2024/04/04 10:44:49;;;;;;;6.03;1.50;;;;;;;13.13;78.35;100246.00;8379352;28;20059;-79
2024/04/04 10:48:50;;;;;;;6.45;1.40;;;;;;;12.81;82.41;100252.13;8380157;28;20474;-81
2024/04/04 10:52:51;;;;;;;7.15;1.60;;;;;;;12.75;89.79;100261.03;8379265;28;20147;-79
2024/04/04 10:56:52;;;;;;;2.78;1.30;;;;;;;12.32;94.93;100247.84;8378527;28;20092;-80
2024/04/04 11:00:54;;;;;;;3.28;1.38;;;;;;;12.23;100.00;100243.69;8380701;28;20061;-82
2024/04/04 11:04:56;;;;;;;7.07;1.40;;;;;;;11.97;100.00;100247.03;8368650;28;20060;-82
2024/04/04 11:09:00;;;;;;;6.57;1.40;;;;;;;11.86;100.00;100240.41;8372242;28;20037;-84
2024/04/04 11:13:02;;;;;;;9.52;2.17;;;;;;;11.79;100.00;100242.19;8405780;28;20048;-83
2024/04/04 11:17:03;;;;;;;5.32;1.30;;;;;;;11.58;100.00;100240.38;8384423;28;20049;-84
2024/04/04 11:21:07;;;;;;;4.10;1.60;;;;;;;11.54;100.00;100232.91;8382710;28;20111;-84
2024/04/04 11:25:09;;;;;;;3.38;1.73;;;;;;;11.53;100.00;100220.53;8364437;28;20076;-83
2024/04/04 11:29:10;;;;;;;5.70;1.33;;;;;;;11.60;100.00;100216.84;8378173;28;20080;-83
2024/04/04 11:33:11;;;;;;;2.65;1.35;;;;;;;11.72;100.00;100209.91;8361192;28;20084;-83
2024/04/04 11:37:12;;;;;;;3.42;1.50;;;;;;;12.10;100.00;100190.72;8378068;28;20074;-83
2024/04/04 11:41:13;;;;;;;5.68;2.10;;;;;;;12.22;100.00;100194.50;8376692;28;20080;-81
2024/04/04 11:45:15;;;;;;;5.80;2.03;;;;;;;12.44;100.00;100187.13;8377498;28;20509;-79
2024/04/04 11:49:18;;;;;;;4.53;1.63;;;;;;;12.56;100.00;100193.59;8384171;28;20056;-82
2024/04/04 11:53:19;;;;;;;5.75;1.45;;;;;;;12.53;100.00;100191.31;8372826;28;20466;-78
2024/04/04 11:57:21;;;;;;;4.47;1.70;;;;;;;12.51;100.00;100173.75;8389017;28;20121;-80
2024/04/04 12:01:21;;;;;;;1.65;1.10;;;;;;;12.16;100.00;100171.16;8372252;28;20045;-79
2024/04/04 12:05:22;;;;;;;3.13;1.50;;;;;;;12.02;100.00;100167.56;8388198;28;20049;-80
2024/04/04 12:09:23;;;;;;;4.45;2.03;;;;;;;12.01;100.00;100163.25;8374539;28;20460;-79
2024/04/04 12:13:23;;;;;;;4.55;1.75;;;;;;;12.08;100.00;100165.94;8386712;28;20057;-80
2024/04/04 12:17:24;;;;;;;7.28;1.90;;;;;;;12.14;100.00;100154.38;8377879;28;20057;-81
2024/04/04 12:21:24;;;;;;;5.38;2.28;;;;;;;12.14;100.00;100153.56;8377358;28;20137;-80
2024/04/04 12:25:25;;;;;;;4.03;1.60;;;;;;;11.93;100.00;100141.91;8360392;28;20053;-80
2024/04/04 12:29:25;;;;;;;6.20;2.50;;;;;;;11.97;100.00;100134.28;8376522;28;20362;-80
2024/04/04 12:33:26;;;;;;;5.30;2.50;;;;;;;12.17;100.00;100134.38;8370804;28;20085;-81
2024/04/04 12:37:27;;;;;;;3.35;2.10;;;;;;;11.88;100.00;100136.34;8348101;28;20060;-82
2024/04/04 12:41:28;;;;;;;3.90;2.88;;;;;;;11.77;100.00;100120.75;8346754;28;20457;-79
2024/04/04 12:45:28;;;;;;;3.83;2.03;;;;;;;11.78;100.00;100115.22;8362130;28;20057;-82
2024/04/04 12:49:30;;;;;;;5.25;2.60;;;;;;;11.78;100.00;100109.00;8379248;28;20076;-81
2024/04/04 12:53:31;;;;;;;4.00;2.95;;;;;;;11.88;100.00;100106.81;8381115;28;20060;-82
2024/04/04 12:57:32;;;;;;;5.40;3.25;;;;;;;11.80;100.00;100096.22;8388408;28;20057;-82
2024/04/04 13:01:32;;;;;;;6.85;3.60;;;;;;;11.91;100.00;100087.59;8389678;28;20063;-81
2024/04/04 13:05:33;;;;;;;5.75;3.50;;;;;;;11.95;100.00;100077.28;8381567;28;20431;-82
2024/04/04 13:09:34;;;;;;;4.68;3.10;;;;;;;11.98;100.00;100071.53;8377651;28;20060;-81
2024/04/04 13:13:35;;;;;;;5.25;3.53;;;;;;;12.09;100.00;100076.31;8360355;28;20060;-84
2024/04/04 13:17:36;;;;;;;7.70;4.20;;;;;;;12.18;100.00;100066.22;8378568;28;20056;-81
2024/04/04 13:21:36;;;;;;;6.15;3.90;;;;;;;12.24;100.00;100065.38;8377649;28;20083;-82
2024/04/04 13:25:37;;;;;;;7.93;4.05;;;;;;;12.18;100.00;100055.47;8377465;28;20052;-82
2024/04/04 13:29:38;;;;;;;9.85;5.22;;;;;;;12.25;100.00;100034.81;8360045;28;20064;-82
2024/04/04 13:33:38;;;;;;;4.05;3.13;;;;;;;12.09;100.00;100036.03;8376050;28;20057;-81
2024/04/04 13:37:40;;;;;;;6.57;3.28;;;;;;;12.10;100.00;100034.16;8358284;28;20057;-80
2024/04/04 13:41:41;;;;;;;6.25;4.30;;;;;;;12.24;100.00;100020.56;8356289;28;20528;-80
2024/04/04 13:45:41;;;;;;;5.60;3.13;;;;;;;12.29;100.00;100022.63;8373297;28;20053;-80
2024/04/04 13:49:42;;;;;;;6.50;3.33;;;;;;;12.50;100.00;100019.75;8373949;28;20056;-80
2024/04/04 13:53:43;;;;;;;8.43;4.10;;;;;;;12.50;100.00;100021.63;8372897;28;20128;-80
2024/04/04 13:57:43;;;;;;;6.38;3.45;;;;;;;12.58;100.00;100030.28;8346604;28;20545;-80
2024/04/04 14:01:44;;;;;;;7.68;3.65;;;;;;;12.58;100.00;100016.84;8377338;28;20049;-80
2024/04/04 14:05:45;;;;;;;6.43;3.33;;;;;;;12.63;100.00;99994.72;8354318;28;20132;-81
2024/04/04 14:09:47;;;;;;;6.60;3.90;;;;;;;12.60;100.00;100016.63;8378816;28;20057;-80
2024/04/04 14:13:49;;;;;;;6.90;3.22;;;;;;;12.54;100.00;100004.88;8375125;28;20084;-80
2024/04/04 14:17:49;;;;;;;8.23;3.95;;;;;;;12.54;100.00;99986.06;8356103;28;20169;-81
2024/04/04 14:21:50;;;;;;;6.15;3.38;;;;;;;12.48;100.00;99994.94;8359209;28;20079;-81
2024/04/04 14:25:52;;;;;;;7.40;3.92;;;;;;;12.60;100.00;99987.06;8358835;28;20517;-81
2024/04/04 14:29:52;;;;;;;5.78;3.95;;;;;;;12.60;100.00;99984.38;8377519;28;20079;-82
2024/04/04 14:33:53;;;;;;;7.88;3.55;;;;;;;12.54;100.00;99993.28;8357433;28;20501;-81
2024/04/04 14:37:56;;;;;;;6.70;3.97;;;;;;;12.58;100.00;99989.16;8356510;28;20185;-80
2024/04/04 14:41:56;;;;;;;7.13;3.55;;;;;;;12.61;100.00;99984.19;8374801;28;20096;-83
2024/04/04 14:45:57;;;;;;;5.15;3.47;;;;;;;12.72;100.00;99976.53;8357719;28;20057;-81
2024/04/04 14:49:58;;;;;;;5.93;2.60;;;;;;;12.76;100.00;99977.75;8373960;28;20056;-80
2024/04/04 14:53:58;;;;;;;6.28;2.95;;;;;;;13.03;100.00;99971.28;8377183;28;20064;-81
2024/04/04 14:57:59;;;;;;;4.95;2.42;;;;;;;13.28;100.00;99974.13;8377768;28;20076;-81
2024/04/04 15:02:01;;;;;;;2.90;2.17;;;;;;;13.49;100.00;99960.34;8376504;28;20486;-80
2024/04/04 15:06:02;;;;;;;4.03;1.95;;;;;;;13.86;100.00;99974.03;8376294;28;20084;-80
2024/04/04 15:10:04;;;;;;;2.80;1.65;;;;;;;14.06;100.00;99963.16;8375610;28;20057;-80
2024/04/04 15:14:04;;;;;;;3.85;1.85;;;;;;;13.85;100.00;99970.50;8378242;28;20080;-80
2024/04/04 15:18:05;;;;;;;2.53;1.63;;;;;;;13.61;100.00;99973.97;8361518;28;20049;-80
2024/04/04 15:22:06;;;;;;;2.10;1.48;;;;;;;13.77;100.00;99989.63;8359513;28;20052;-80
2024/04/04 15:26:06;;;;;;;3.13;1.60;;;;;;;13.96;100.00;99971.69;8374703;28;20060;-80
2024/04/04 15:30:07;;;;;;;4.35;1.73;;;;;;;14.59;100.00;99976.22;8377296;28;20562;-81
2024/04/04 15:34:12;;;;;;;2.13;0.90;;;;;;;14.75;100.00;99976.47;8378342;28;20045;-82
2024/04/04 15:38:15;;;;;;;3.45;1.00;;;;;;;14.86;100.00;99992.94;8377135;28;20461;-80
2024/04/04 15:42:16;;;;;;;1.45;0.80;;;;;;;14.97;100.00;99993.03;8360218;28;20073;-80
2024/04/04 15:46:16;;;;;;;4.10;0.90;;;;;;;14.73;100.00;99997.41;8377109;28;20114;-80
2024/04/04 15:50:17;;;;;;;2.88;0.88;;;;;;;15.02;100.00;99986.97;8366611;28;20057;-80
2024/04/04 15:54:18;;;;;;;1.17;0.75;;;;;;;14.81;100.00;99990.94;8379828;28;20048;-79
2024/04/04 15:58:18;;;;;;;3.13;1.00;;;;;;;14.60;100.00;99988.66;8379007;28;20049;-80
2024/04/04 16:02:19;;;;;;;1.10;0.60;;;;;;;14.37;100.00;99995.41;8377326;28;20041;-81
2024/04/04 16:06:20;;;;;;;3.33;0.85;;;;;;;14.36;100.00;99991.06;8376160;28;20067;-79
2024/04/04 16:10:21;;;;;;;1.85;0.80;;;;;;;14.40;100.00;99989.59;8380049;28;20098;-79
2024/04/04 16:14:21;;;;;;;0.85;0.70;;;;;;;14.24;100.00;99984.78;8367074;28;20060;-79
2024/04/04 16:18:24;;;;;;;1.85;0.93;;;;;;;14.34;100.00;99995.88;8377974;28;20075;-79
2024/04/04 16:22:25;;;;;;;1.83;0.80;;;;;;;14.38;100.00;100004.31;8360177;28;20113;-80
2024/04/04 16:26:25;;;;;;;3.00;1.20;;;;;;;14.30;100.00;100001.91;8376371;28;20497;-79
2024/04/04 16:30:26;;;;;;;3.45;1.33;;;;;;;14.32;100.00;100013.28;8375992;28;20056;-79
2024/04/04 16:34:27;;;;;;;5.43;0.90;;;;;;;14.14;100.00;100012.19;8361702;28;20049;-80
2024/04/04 16:38:27;;;;;;;3.60;0.98;;;;;;;14.30;100.00;100010.00;8365099;28;20148;-80
2024/04/04 16:42:28;;;;;;;4.32;2.20;;;;;;;14.17;100.00;100017.13;8381207;28;20053;-80
2024/04/04 16:46:29;;;;;;;2.05;0.80;;;;;;;14.04;100.00;100017.19;8360568;28;20057;-79
2024/04/04 16:50:30;;;;;;;0.88;0.65;;;;;;;14.07;100.00;100018.66;8360634;28;20135;-80
2024/04/04 16:54:31;;;;;;;0.65;0.60;;;;;;;14.06;100.00;100030.47;8364296;28;20084;-77
2024/04/04 16:58:31;;;;;;;1.52;0.73;;;;;;;14.64;100.00;100028.41;8389909;28;20053;-79
2024/04/04 17:02:32;;;;;;;2.28;0.60;;;;;;;14.22;100.00;100035.31;8387244;28;20072;-78
2024/04/04 17:06:33;;;;;;;3.95;1.08;;;;;;;14.16;100.00;100046.97;8359581;28;20057;-79
2024/04/04 17:10:34;;;;;;;1.98;0.60;;;;;;;14.08;100.00;100056.16;8358144;28;20126;-79
2024/04/04 17:14:35;;;;;;;3.20;0.73;;;;;;;13.90;100.00;100055.22;8357180;28;20102;-79
2024/04/04 17:18:36;;;;;;;3.08;1.20;;;;;;;13.85;100.00;100066.63;8371805;28;20118;-78
2024/04/04 17:22:37;;;;;;;0.68;0.47;;;;;;;13.90;95.50;100074.06;8371786;28;20112;-79
2024/04/04 17:26:37;;;;;;;3.70;0.50;;;;;;;13.83;95.95;100088.38;8372181;28;20087;-79
2024/04/04 17:30:38;;;;;;;0.70;0.50;;;;;;;13.90;96.58;100101.81;8356384;28;20056;-81
2024/04/04 17:34:39;;;;;;;2.33;0.57;;;;;;;13.92;95.52;100082.75;8356589;28;20053;-81
2024/04/04 17:38:39;;;;;;;1.15;0.60;;;;;;;13.95;94.17;100075.06;8356952;28;20057;-79
2024/04/04 17:42:40;;;;;;;3.67;0.80;;;;;;;14.02;94.51;100050.78;8371538;28;20102;-80
2024/04/04 17:46:42;;;;;;;3.42;1.08;;;;;;;13.81;95.57;100060.00;8368826;28;20045;-82
2024/04/04 17:50:43;;;;;;;1.25;0.70;;;;;;;13.32;100.00;100068.69;8371252;28;20103;-79
2024/04/04 17:54:43;;;;;;;2.97;0.80;;;;;;;13.15;100.00;100074.47;8366642;28;20077;-79
2024/04/04 17:58:44;;;;;;;2.50;1.10;;;;;;;13.12;100.00;100098.28;9253011;22;20136;-79
2024/04/04 18:02:45;;;;;;;1.63;0.68;;;;;;;12.95;100.00;100079.88;8343170;28;20046;-79
2024/04/04 18:06:45;;;;;;;3.83;0.98;;;;;;;12.90;100.00;100089.63;8345487;28;20083;-79
2024/04/04 18:10:46;;;;;;;1.08;0.60;;;;;;;12.85;100.00;100108.25;8346103;28;20053;-79
2024/04/04 18:14:46;;;;;;;1.65;1.00;;;;;;;12.87;100.00;100108.84;8356321;28;20113;-79
2024/04/04 18:18:47;;;;;;;1.02;0.70;;;;;;;12.84;100.00;100122.69;8366891;28;20084;-79
2024/04/04 18:22:48;;;;;;;1.92;0.70;;;;;;;12.83;100.00;100124.56;8345456;28;20053;-80
2024/04/04 18:26:48;;;;;;;2.78;0.80;;;;;;;12.72;100.00;100135.09;8378215;28;20060;-80
2024/04/04 18:30:51;;;;;;;3.60;1.02;;;;;;;12.74;100.00;100158.06;8358350;28;20468;-80
2024/04/04 18:34:51;;;;;;;0.90;0.60;;;;;;;12.83;100.00;100164.03;8359389;28;20146;-79